Time;durP1;ratioP1;P1;durP2;ratioP2;P2;SDS_P1;SDS_P2;PMS_P1;PMS_P2;Temp;Humidity;BMP_temperature;BMP_pressure;BME280_temperature;BME280_humidity;BME280_pressure;Samples;Min_cycle;Max_cycle;Signal;HPM_P1;HPM_P2
2022/08/02 00:00:42;;;;;;;2.03;1.20;;;29.10;72.50;;;;;;6274955;22;20042;-82
2022/08/02 00:03:07;;;;;;;1.95;0.80;;;29.20;72.60;;;;;;6275240;22;20008;-81
2022/08/02 00:05:33;;;;;;;1.15;0.77;;;29.10;72.50;;;;;;6274759;22;20010;-82
2022/08/02 00:07:59;;;;;;;1.13;0.82;;;29.20;72.60;;;;;;6275770;22;20010;-82
2022/08/02 00:10:25;;;;;;;1.33;0.90;;;29.20;72.70;;;;;;6275298;22;20421;-82
2022/08/02 00:12:50;;;;;;;1.55;1.10;;;29.10;72.60;;;;;;6275476;22;20262;-82
2022/08/02 00:15:16;;;;;;;1.42;0.90;;;29.00;72.70;;;;;;6275393;22;20000;-82
2022/08/02 00:17:43;;;;;;;1.50;1.13;;;29.00;72.80;;;;;;6275116;22;20090;-82
2022/08/02 00:20:09;;;;;;;1.23;1.02;;;29.00;73.00;;;;;;6275158;22;20007;-82
2022/08/02 00:22:35;;;;;;;2.35;1.17;;;29.00;73.10;;;;;;6274886;22;20003;-82
2022/08/02 00:25:00;;;;;;;1.80;1.00;;;29.00;73.50;;;;;;6275122;22;20129;-82
2022/08/02 00:27:26;;;;;;;1.30;0.93;;;28.90;73.20;;;;;;6274964;22;20006;-82
2022/08/02 00:29:52;;;;;;;1.60;1.20;;;28.80;73.50;;;;;;6274662;22;20004;-82
2022/08/02 00:32:18;;;;;;;1.80;0.90;;;28.90;73.80;;;;;;6275545;22;20415;-82
2022/08/02 00:34:43;;;;;;;1.77;1.15;;;28.80;73.60;;;;;;6275548;22;20054;-80
2022/08/02 00:37:09;;;;;;;0.90;0.90;;;28.80;74.10;;;;;;6247987;22;20000;-79
2022/08/02 00:39:35;;;;;;;1.33;0.80;;;28.80;73.80;;;;;;6274758;22;20004;-80
2022/08/02 00:42:01;;;;;;;1.33;1.17;;;28.70;73.90;;;;;;6274213;22;20057;-81
2022/08/02 00:44:27;;;;;;;1.02;0.85;;;28.60;74.30;;;;;;6274589;22;20063;-80
2022/08/02 00:46:52;;;;;;;2.85;1.25;;;28.60;73.90;;;;;;6274559;22;20111;-80
2022/08/02 00:49:18;;;;;;;1.65;1.05;;;28.60;73.50;;;;;;6274359;22;20310;-80
2022/08/02 00:51:44;;;;;;;1.35;0.90;;;28.50;72.30;;;;;;6274702;22;20000;-80
2022/08/02 00:54:10;;;;;;;1.42;0.90;;;28.50;71.40;;;;;;6247418;22;20000;-79
2022/08/02 00:56:35;;;;;;;1.95;0.82;;;28.50;71.00;;;;;;6273213;22;20003;-79
2022/08/02 00:59:03;;;;;;;1.80;0.77;;;28.50;69.50;;;;;;6273721;22;19996;-80
2022/08/02 01:01:37;;;;;;;5.80;1.00;;;28.40;68.30;;;;;;6273812;22;20012;-81
2022/08/02 01:04:05;;;;;;;0.50;0.50;;;28.50;63.00;;;;;;6273822;22;20019;-82
2022/08/02 01:06:32;;;;;;;8.82;0.93;;;28.40;63.90;;;;;;6274277;22;20066;-79
2022/08/02 01:08:59;;;;;;;8.75;1.10;;;28.40;56.60;;;;;;6247130;22;20045;-78
2022/08/02 01:11:25;;;;;;;1.30;0.60;;;28.30;55.90;;;;;;6246684;22;20003;-79
2022/08/02 01:13:52;;;;;;;1.00;0.47;;;28.20;56.40;;;;;;6273764;22;20028;-79
2022/08/02 01:16:22;;;;;;;2.42;0.90;;;28.10;57.50;;;;;;6273615;22;20071;-79
2022/08/02 01:18:52;;;;;;;;;;;28.00;54.80;;;;;;6247201;22;20007;-80
2022/08/02 01:21:36;;;;;;;1.20;0.35;;;27.90;54.40;;;;;;6274140;22;19899;-79
2022/08/02 01:24:23;;;;;;;4.53;0.60;;;27.90;56.00;;;;;;6273992;22;20422;-79
2022/08/02 01:26:57;;;;;;;1.55;0.47;;;27.90;55.80;;;;;;6273471;22;20010;-80
2022/08/02 01:29:29;;;;;;;1.77;0.47;;;27.90;56.30;;;;;;6273875;22;20418;-80
2022/08/02 01:32:07;;;;;;;4.57;0.60;;;27.90;55.80;;;;;;6274463;22;20022;-80
2022/08/02 01:34:41;;;;;;;1.38;0.47;;;27.90;55.90;;;;;;6276197;22;19999;-79
2022/08/02 01:37:13;;;;;;;5.30;0.40;;;27.70;56.50;;;;;;6275223;22;20342;-80
2022/08/02 01:39:41;;;;;;;5.80;0.60;;;27.70;57.10;;;;;;6275258;22;20012;-79
2022/08/02 01:42:09;;;;;;;3.00;0.57;;;27.60;57.00;;;;;;6275741;22;20004;-79
2022/08/02 01:44:38;;;;;;;3.03;0.50;;;27.60;57.60;;;;;;6248887;22;20329;-82
2022/08/02 01:47:09;;;;;;;0.73;0.43;;;27.40;57.90;;;;;;6275821;22;20369;-82
2022/08/02 01:49:38;;;;;;;2.15;0.47;;;27.30;58.10;;;;;;6275907;22;20057;-82
2022/08/02 01:52:21;;;;;;;5.35;0.60;;;27.40;58.50;;;;;;6249014;22;20004;-82
2022/08/02 01:55:17;;;;;;;4.82;0.57;;;27.40;58.70;;;;;;6275828;22;20007;-82
2022/08/02 01:57:49;;;;;;;3.20;0.55;;;27.40;58.80;;;;;;6248915;22;20007;-82
2022/08/02 02:00:16;;;;;;;3.72;0.90;;;27.50;58.80;;;;;;6276315;22;20061;-82
2022/08/02 02:02:43;;;;;;;0.77;0.30;;;27.50;58.80;;;;;;6276246;22;20454;-82
2022/08/02 02:05:19;;;;;;;4.82;0.43;;;27.40;58.10;;;;;;6276216;22;20000;-81
2022/08/02 02:07:49;;;;;;;1.45;0.40;;;27.40;58.60;;;;;;6276340;22;20006;-82
2022/08/02 02:10:19;;;;;;;2.47;0.50;;;27.40;58.50;;;;;;6276177;22;20071;-82
2022/08/02 02:12:50;;;;;;;;;;;27.50;58.10;;;;;;6276849;22;20000;-83
2022/08/02 02:15:17;;;;;;;10.00;0.60;;;27.50;58.20;;;;;;6276025;22;19899;-80
2022/08/02 02:17:45;;;;;;;0.63;0.30;;;27.40;58.20;;;;;;6275983;22;20005;-81
2022/08/02 02:20:14;;;;;;;0.50;0.40;;;27.40;58.20;;;;;;6276600;22;20012;-80
2022/08/02 02:22:41;;;;;;;0.50;0.20;;;27.50;58.10;;;;;;6276676;22;19999;-81
2022/08/02 02:25:09;;;;;;;3.05;0.47;;;27.50;58.10;;;;;;6275389;22;20007;-81
2022/08/02 02:27:36;;;;;;;0.40;0.32;;;27.40;57.80;;;;;;6276097;22;20426;-81
2022/08/02 02:30:04;;;;;;;0.40;0.30;;;27.50;58.10;;;;;;6275552;22;19999;-81
2022/08/02 02:32:30;;;;;;;0.93;0.28;;;27.50;57.90;;;;;;6275942;22;20003;-81
2022/08/02 02:34:58;;;;;;;0.77;0.40;;;27.50;57.50;;;;;;6276100;22;19996;-80
2022/08/02 02:37:26;;;;;;;0.77;0.40;;;27.40;57.40;;;;;;6275355;22;20020;-81
2022/08/02 02:39:55;;;;;;;2.53;0.35;;;27.30;58.00;;;;;;6275219;22;20064;-81
2022/08/02 02:42:27;;;;;;;1.25;0.60;;;27.30;58.20;;;;;;6276057;22;20326;-80
2022/08/02 02:44:53;;;;;;;0.47;0.32;;;27.20;58.10;;;;;;6275752;22;20499;-81
2022/08/02 02:47:21;;;;;;;0.88;0.40;;;27.20;58.00;;;;;;6275559;22;20046;-82
2022/08/02 02:49:50;;;;;;;0.30;0.30;;;27.20;58.10;;;;;;6275324;22;20008;-80
2022/08/02 02:52:17;;;;;;;1.05;0.30;;;27.10;58.20;;;;;;6275747;22;20352;-79
2022/08/02 02:54:46;;;;;;;1.77;0.57;;;26.90;58.50;;;;;;6274962;22;20418;-79
2022/08/02 02:57:13;;;;;;;1.58;0.40;;;26.90;58.70;;;;;;6275325;22;20429;-79
2022/08/02 02:59:40;;;;;;;0.85;0.50;;;26.80;59.10;;;;;;6274738;22;20015;-79
2022/08/02 03:02:06;;;;;;;1.52;0.45;;;26.90;59.20;;;;;;6275582;22;20125;-79
2022/08/02 03:04:32;;;;;;;6.50;0.60;;;26.90;59.00;;;;;;6275548;22;20329;-79
2022/08/02 03:07:02;;;;;;;0.75;0.30;;;26.70;58.80;;;;;;6275622;22;20003;-79
2022/08/02 03:09:28;;;;;;;1.13;0.40;;;26.80;59.10;;;;;;6275738;22;20067;-79
2022/08/02 03:11:55;;;;;;;0.60;0.45;;;26.80;59.20;;;;;;6248643;22;20378;-79
2022/08/02 03:14:22;;;;;;;2.83;0.60;;;26.90;59.00;;;;;;6274722;22;20029;-79
2022/08/02 03:16:50;;;;;;;2.63;0.60;;;27.00;58.90;;;;;;6275309;22;20402;-80
2022/08/02 03:19:16;;;;;;;0.30;0.30;;;26.90;58.90;;;;;;6275336;22;20003;-80
2022/08/02 03:21:43;;;;;;;1.40;0.68;;;26.90;58.90;;;;;;6275572;22;20375;-80
2022/08/02 03:24:10;;;;;;;2.50;0.55;;;27.00;58.70;;;;;;6275708;22;20007;-80
2022/08/02 03:26:36;;;;;;;1.10;0.57;;;26.90;58.70;;;;;;6275223;22;20003;-80
2022/08/02 03:29:02;;;;;;;0.47;0.30;;;26.90;58.30;;;;;;6275139;22;20386;-80
2022/08/02 03:31:28;;;;;;;1.95;0.45;;;26.90;58.60;;;;;;6275444;22;20524;-79
2022/08/02 03:33:55;;;;;;;1.45;0.50;;;26.80;58.50;;;;;;6274910;22;20000;-79
2022/08/02 03:36:22;;;;;;;1.50;0.47;;;26.90;58.30;;;;;;6275542;22;20368;-79
2022/08/02 03:38:50;;;;;;;2.78;0.30;;;26.70;57.30;;;;;;6275031;22;20000;-81
2022/08/02 03:41:17;;;;;;;0.30;0.30;;;26.50;57.70;;;;;;6275257;22;20010;-84
2022/08/02 03:43:45;;;;;;;0.38;0.28;;;26.40;58.30;;;;;;6274400;22;20034;-83
2022/08/02 03:46:13;;;;;;;0.45;0.35;;;26.50;58.40;;;;;;6274659;22;20026;-83
2022/08/02 03:48:40;;;;;;;1.27;0.30;;;26.50;57.90;;;;;;6275112;22;20000;-82
2022/08/02 03:51:06;;;;;;;1.08;0.30;;;26.60;58.30;;;;;;6275055;22;20007;-81
2022/08/02 03:53:35;;;;;;;0.30;0.30;;;26.60;58.40;;;;;;6275243;22;20000;-81
2022/08/02 03:56:01;;;;;;;0.55;0.50;;;26.70;58.40;;;;;;6246539;22;20082;-81
2022/08/02 03:58:27;;;;;;;1.35;0.45;;;26.70;58.50;;;;;;6274874;22;20486;-81
2022/08/02 04:00:55;;;;;;;0.82;0.50;;;26.60;58.60;;;;;;6248105;22;20046;-81
2022/08/02 04:03:20;;;;;;;0.40;0.30;;;26.40;59.70;;;;;;6275576;22;20011;-80
2022/08/02 04:05:46;;;;;;;2.17;0.38;;;26.50;59.40;;;;;;6274865;22;20004;-80
2022/08/02 04:08:12;;;;;;;0.82;0.50;;;26.50;59.50;;;;;;6274897;22;20010;-81
2022/08/02 04:13:24;;;;;;;0.60;0.50;;;26.40;61.70;;;;;;6274749;22;20054;-81
2022/08/02 04:15:54;;;;;;;1.02;0.65;;;26.40;61.40;;;;;;6274742;22;20030;-81
2022/08/02 04:18:24;;;;;;;0.52;0.50;;;26.50;62.70;;;;;;6274600;22;19999;-81
2022/08/02 04:20:52;;;;;;;0.73;0.40;;;26.50;62.90;;;;;;6275012;22;19996;-82
2022/08/02 04:23:17;;;;;;;2.38;0.60;;;26.50;64.40;;;;;;6274514;22;20011;-80
2022/08/02 04:25:44;;;;;;;0.60;0.40;;;26.50;63.60;;;;;;6274283;22;20004;-80
2022/08/02 04:28:11;;;;;;;1.77;0.70;;;26.50;64.00;;;;;;6274517;22;20418;-79
2022/08/02 04:30:37;;;;;;;0.95;0.57;;;26.50;64.10;;;;;;6275034;22;20075;-80
2022/08/02 04:33:03;;;;;;;1.58;0.63;;;26.40;63.90;;;;;;6274646;22;20078;-86
2022/08/02 04:35:29;;;;;;;3.25;0.60;;;26.40;64.50;;;;;;6274710;22;20063;-78
2022/08/02 04:37:55;;;;;;;1.45;0.57;;;26.40;64.30;;;;;;6274614;22;20077;-78
2022/08/02 04:40:21;;;;;;;0.80;0.70;;;26.00;65.30;;;;;;6274371;22;20003;-78
2022/08/02 04:42:46;;;;;;;1.00;0.60;;;25.20;68.70;;;;;;6273898;22;20014;-78
2022/08/02 04:45:13;;;;;;;0.70;0.57;;;24.60;71.10;;;;;;6273111;22;20065;-78
2022/08/02 04:47:39;;;;;;;1.40;0.57;;;24.70;71.00;;;;;;6274105;22;20458;-78
2022/08/02 04:50:05;;;;;;;0.93;0.52;;;24.90;70.30;;;;;;6247247;22;20035;-78
2022/08/02 04:52:30;;;;;;;0.85;0.52;;;25.20;70.10;;;;;;6246993;22;20031;-77
2022/08/02 04:54:56;;;;;;;1.75;0.70;;;25.30;70.30;;;;;;6273566;22;20003;-78
2022/08/02 05:00:10;;;;;;;2.88;1.00;;;25.50;70.30;;;;;;6275016;22;20031;-84
2022/08/02 05:02:35;;;;;;;0.70;0.70;;;25.30;72.00;;;;;;6272414;22;20010;-83
2022/08/02 05:05:02;;;;;;;2.08;1.00;;;24.90;74.40;;;;;;6273279;22;20230;-83
2022/08/02 05:07:28;;;;;;;3.78;1.00;;;24.60;76.10;;;;;;6276312;22;20074;-76
2022/08/02 05:09:53;;;;;;;4.07;1.00;;;24.60;77.10;;;;;;6276059;22;20027;-77
2022/08/02 05:12:21;;;;;;;2.10;0.95;;;24.40;78.20;;;;;;6276568;22;20298;-80
2022/08/02 05:14:47;;;;;;;2.15;1.00;;;24.40;79.70;;;;;;6249942;22;20082;-81
2022/08/02 05:17:13;;;;;;;5.20;1.20;;;24.40;79.50;;;;;;6277395;22;20026;-78
2022/08/02 05:19:40;;;;;;;2.05;0.90;;;24.30;81.10;;;;;;6277405;22;20414;-77
2022/08/02 05:22:05;;;;;;;4.90;1.00;;;24.20;81.70;;;;;;6277247;22;20003;-76
2022/08/02 05:24:31;;;;;;;15.68;1.67;;;23.90;83.20;;;;;;6277968;22;20356;-79
2022/08/02 05:26:57;;;;;;;5.15;1.25;;;23.90;85.20;;;;;;6277108;22;20004;-79
2022/08/02 05:29:22;;;;;;;4.53;0.80;;;23.60;83.70;;;;;;6276231;22;20006;-80
2022/08/02 05:31:48;;;;;;;2.33;1.02;;;23.50;84.60;;;;;;6276451;22;20318;-81
2022/08/02 05:34:14;;;;;;;0.88;0.40;;;23.30;85.20;;;;;;6274094;22;20158;-82
2022/08/02 05:36:41;;;;;;;1.38;0.68;;;23.50;84.90;;;;;;6271217;22;20079;-83
2022/08/02 05:39:08;;;;;;;2.03;0.80;;;23.60;83.80;;;;;;6270928;22;20045;-80
2022/08/02 05:41:34;;;;;;;1.90;0.77;;;23.50;84.70;;;;;;6268912;22;20004;-78
2022/08/02 05:43:59;;;;;;;2.28;0.80;;;23.50;84.80;;;;;;6271381;22;20004;-82
2022/08/02 05:46:29;;;;;;;0.85;0.55;;;23.10;84.70;;;;;;6272132;22;20372;-84
2022/08/02 05:48:55;;;;;;;1.77;0.90;;;22.90;85.80;;;;;;6269997;22;20058;-84
2022/08/02 05:51:32;;;;;;;2.20;0.60;;;22.80;86.40;;;;;;6271691;22;20700;-85
2022/08/02 05:54:30;;;;;;;1.83;0.80;;;22.70;87.80;;;;;;6270353;22;20460;-82
2022/08/02 05:57:16;;;;;;;1.63;0.70;;;22.70;88.00;;;;;;6268739;22;20010;-84
2022/08/02 06:00:04;;;;;;;2.25;0.90;;;22.90;87.40;;;;;;6269672;22;20520;-85
2022/08/02 06:02:41;;;;;;;3.40;0.85;;;23.20;87.00;;;;;;6269769;22;20111;-80
2022/08/02 06:05:12;;;;;;;3.25;0.82;;;22.80;87.60;;;;;;6269451;22;20008;-83
2022/08/02 06:07:42;;;;;;;0.52;0.52;;;22.60;88.70;;;;;;6241668;22;20034;-83
2022/08/02 06:10:12;;;;;;;1.80;0.77;;;22.60;89.40;;;;;;6270037;22;20016;-81
2022/08/02 06:12:47;;;;;;;3.03;1.00;;;22.50;88.30;;;;;;6268484;22;20061;-82
2022/08/02 06:15:15;;;;;;;1.88;0.60;;;22.60;88.60;;;;;;6271594;22;20070;-84
2022/08/02 06:17:42;;;;;;;3.95;1.08;;;22.60;88.40;;;;;;6275029;22;20000;-83
2022/08/02 06:20:10;;;;;;;1.27;0.60;;;22.70;87.90;;;;;;6274585;22;20012;-81
2022/08/02 06:22:39;;;;;;;2.67;0.90;;;22.80;87.50;;;;;;6272462;22;20049;-81
2022/08/02 06:25:06;;;;;;;1.35;0.60;;;22.80;87.10;;;;;;6275720;22;20011;-81
2022/08/02 06:27:33;;;;;;;1.23;0.70;;;23.00;86.50;;;;;;6275301;22;20088;-80
2022/08/02 06:30:00;;;;;;;2.72;0.70;;;23.10;86.50;;;;;;6274204;22;20343;-81
2022/08/02 06:32:26;;;;;;;1.77;0.77;;;23.30;86.00;;;;;;6272428;22;19995;-82
2022/08/02 06:34:52;;;;;;;5.00;1.17;;;23.50;86.20;;;;;;6275073;22;20389;-82
2022/08/02 06:37:41;;;;;;;3.35;1.17;;;23.70;86.70;;;;;;6249335;22;20414;-81
2022/08/02 06:40:10;;;;;;;1.90;0.90;;;23.80;87.40;;;;;;6250859;22;20003;-81
2022/08/02 06:43:01;;;;;;;1.77;0.77;;;23.90;87.00;;;;;;6277687;22;20003;-82
2022/08/02 06:45:26;;;;;;;1.83;0.73;;;24.00;86.40;;;;;;6277079;22;20552;-81
2022/08/02 06:47:53;;;;;;;1.42;0.82;;;24.10;86.10;;;;;;6276812;22;20027;-81
2022/08/02 06:50:19;;;;;;;2.33;1.02;;;24.10;85.90;;;;;;6277554;22;20019;-82
2022/08/02 06:52:45;;;;;;;2.00;0.73;;;24.20;85.80;;;;;;6277502;22;19996;-82
2022/08/02 06:55:10;;;;;;;2.30;0.95;;;24.30;85.50;;;;;;6277456;22;20074;-82
2022/08/02 06:57:36;;;;;;;4.57;1.08;;;24.30;85.60;;;;;;6276639;22;19995;-82
2022/08/02 07:00:07;;;;;;;2.45;1.10;;;24.30;86.00;;;;;;6277085;22;20011;-83
2022/08/02 07:02:35;;;;;;;1.50;0.80;;;24.30;85.70;;;;;;6276723;22;20079;-83
2022/08/02 07:05:01;;;;;;;2.05;1.27;;;24.40;85.50;;;;;;6277763;22;20003;-81
2022/08/02 07:07:27;;;;;;;2.63;0.90;;;24.40;86.20;;;;;;6277723;22;20130;-81
2022/08/02 07:09:53;;;;;;;1.80;0.82;;;24.50;86.40;;;;;;6276936;22;20000;-81
2022/08/02 07:12:19;;;;;;;1.73;0.90;;;24.50;86.40;;;;;;6250401;22;20000;-82
2022/08/02 07:14:44;;;;;;;2.38;1.02;;;24.50;86.20;;;;;;6277714;22;20526;-82
2022/08/02 07:17:11;;;;;;;0.88;0.70;;;24.60;86.40;;;;;;6277342;22;20023;-83
2022/08/02 07:19:39;;;;;;;5.38;1.10;;;24.60;86.90;;;;;;6277208;22;20057;-83
2022/08/02 07:22:05;;;;;;;2.88;1.15;;;24.60;87.40;;;;;;6277738;22;20011;-81
2022/08/02 07:24:30;;;;;;;4.43;1.25;;;24.60;87.80;;;;;;6277526;22;19996;-83
2022/08/02 07:26:57;;;;;;;2.90;1.10;;;24.70;88.20;;;;;;6276354;22;20006;-83
2022/08/02 07:29:23;;;;;;;2.33;0.80;;;24.70;88.40;;;;;;6276685;22;20430;-82
2022/08/02 07:31:49;;;;;;;2.80;1.10;;;24.70;88.30;;;;;;6276796;22;20004;-83
2022/08/02 07:34:14;;;;;;;2.95;1.42;;;24.70;87.70;;;;;;6275273;22;19995;-84
2022/08/02 07:36:40;;;;;;;4.10;1.23;;;24.70;86.90;;;;;;6275952;22;20032;-82
2022/08/02 07:39:06;;;;;;;1.73;1.00;;;24.70;86.70;;;;;;6276782;22;19999;-83
2022/08/02 07:41:32;;;;;;;164.10;140.25;;;24.80;87.30;;;;;;6276661;22;20074;-82
2022/08/02 07:43:57;;;;;;;154.18;138.32;;;24.80;87.80;;;;;;6276989;22;20003;-81
2022/08/02 07:46:24;;;;;;;18.35;16.38;;;24.90;88.10;;;;;;6277265;22;20003;-84
2022/08/02 07:48:52;;;;;;;5.72;3.00;;;24.90;88.00;;;;;;6276876;22;19999;-81
2022/08/02 07:51:18;;;;;;;3.13;1.30;;;25.00;87.90;;;;;;6276557;22;20000;-81
2022/08/02 07:53:43;;;;;;;2.50;1.30;;;25.00;87.40;;;;;;6276373;22;20029;-82
2022/08/02 07:56:09;;;;;;;4.65;1.40;;;25.00;87.10;;;;;;6276449;22;20027;-82
2022/08/02 07:58:35;;;;;;;3.30;1.15;;;25.00;87.20;;;;;;6276495;22;20329;-82
2022/08/02 08:01:01;;;;;;;7.82;1.50;;;25.00;86.90;;;;;;6276642;22;20070;-82
2022/08/02 08:03:27;;;;;;;3.17;1.25;;;25.00;86.80;;;;;;6249720;22;20008;-82
2022/08/02 08:05:53;;;;;;;5.00;1.55;;;25.10;86.60;;;;;;6276628;22;20407;-84
2022/08/02 08:08:19;;;;;;;3.65;1.02;;;25.20;86.20;;;;;;6276514;22;20517;-86
2022/08/02 08:10:45;;;;;;;3.28;1.13;;;25.30;86.10;;;;;;6277348;22;20054;-86
2022/08/02 08:13:11;;;;;;;1.92;1.00;;;25.30;86.20;;;;;;6276883;22;20034;-84
2022/08/02 08:15:37;;;;;;;3.05;1.08;;;25.40;85.80;;;;;;6276873;22;20004;-85
2022/08/02 08:18:03;;;;;;;3.65;1.30;;;25.30;84.70;;;;;;6276700;22;20445;-85
2022/08/02 08:20:28;;;;;;;1.90;0.85;;;25.20;84.00;;;;;;6275950;22;20004;-85
2022/08/02 08:22:54;;;;;;;2.95;1.15;;;25.10;83.70;;;;;;6277236;22;20027;-85
2022/08/02 08:25:20;;;;;;;3.20;1.02;;;25.20;84.60;;;;;;6276986;22;20003;-83
2022/08/02 08:27:51;;;;;;;2.28;1.00;;;25.30;84.70;;;;;;6249340;22;20004;-83
2022/08/02 08:30:17;;;;;;;2.13;1.00;;;25.50;85.40;;;;;;6277212;22;20362;-84
2022/08/02 08:32:44;;;;;;;2.67;1.02;;;25.50;84.80;;;;;;6277289;22;19996;-83
2022/08/02 08:35:09;;;;;;;1.67;0.70;;;25.60;82.10;;;;;;6250064;22;20330;-86
2022/08/02 08:37:36;;;;;;;5.38;1.10;;;25.50;77.50;;;;;;6276811;22;19996;-85
2022/08/02 08:40:07;;;;;;;1.50;0.73;;;25.50;79.10;;;;;;6277470;22;20000;-85
2022/08/02 08:42:34;;;;;;;2.30;0.60;;;25.50;79.10;;;;;;6277335;22;20411;-85
2022/08/02 08:45:00;;;;;;;2.47;0.90;;;25.60;78.50;;;;;;6250081;22;20007;-84
2022/08/02 08:47:39;;;;;;;1.38;0.52;;;25.60;78.50;;;;;;6277417;22;19999;-85
2022/08/02 08:50:27;;;;;;;;;;;;;;;;;;;;;
2022/08/02 08:53:07;;;;;;;1.10;0.70;;;25.70;79.10;;;;;;6280556;22;20079;-85
2022/08/02 08:55:35;;;;;;;0.55;0.50;;;25.80;79.40;;;;;;6281226;22;20053;-84
2022/08/02 08:58:03;;;;;;;1.35;0.70;;;25.90;79.40;;;;;;6253527;22;20437;-82
2022/08/02 09:00:30;;;;;;;3.70;0.70;;;26.00;78.60;;;;;;6257691;22;20019;-84
2022/08/02 09:02:57;;;;;;;1.33;0.57;;;26.10;78.10;;;;;;6277809;22;20035;-83
2022/08/02 09:05:24;;;;;;;2.67;0.60;;;26.20;78.60;;;;;;6274672;22;20058;-82
2022/08/02 09:07:51;;;;;;;3.28;0.60;;;26.30;78.30;;;;;;6277190;22;20065;-83
2022/08/02 09:10:39;;;;;;;0.65;0.50;;;26.30;77.90;;;;;;6276504;22;20370;-83
2022/08/02 09:13:09;;;;;;;1.63;0.70;;;26.50;78.40;;;;;;6277486;22;20023;-82
2022/08/02 09:15:39;;;;;;;2.13;0.80;;;26.50;78.70;;;;;;6276682;22;20023;-81
2022/08/02 09:18:05;;;;;;;;;;;26.60;77.60;;;;;;6275626;22;20011;-81
2022/08/02 09:20:49;;;;;;;0.82;0.60;;;26.50;76.80;;;;;;6276070;22;19903;-81
2022/08/02 09:23:15;;;;;;;0.40;0.40;;;26.50;75.90;;;;;;6276636;22;20049;-81
2022/08/02 09:25:41;;;;;;;1.23;0.52;;;26.60;75.90;;;;;;6276400;22;20004;-81
2022/08/02 09:28:06;;;;;;;0.70;0.70;;;26.70;74.30;;;;;;6276310;22;20311;-81
2022/08/02 09:30:42;;;;;;;1.40;0.90;;;26.80;74.10;;;;;;6276422;22;20288;-81
2022/08/02 09:33:08;;;;;;;1.08;0.70;;;26.90;72.60;;;;;;6275745;22;20003;-80
2022/08/02 09:35:39;;;;;;;2.58;0.95;;;26.90;74.20;;;;;;6276096;22;20322;-80
2022/08/02 09:38:13;;;;;;;0.65;0.52;;;27.10;74.40;;;;;;6249625;22;20004;-80
2022/08/02 09:40:40;;;;;;;6.93;0.77;;;27.30;75.10;;;;;;6275932;22;20008;-81
2022/08/02 09:43:07;;;;;;;1.63;0.90;;;27.50;73.10;;;;;;6276766;22;19999;-81
2022/08/02 09:45:33;;;;;;;1.05;0.65;;;27.80;72.70;;;;;;6276748;22;20004;-81
2022/08/02 09:48:07;;;;;;;0.63;0.45;;;27.80;71.00;;;;;;6276126;22;20004;-78
2022/08/02 09:50:37;;;;;;;1.05;0.70;;;28.00;72.00;;;;;;6275470;22;20442;-79
2022/08/02 09:53:03;;;;;;;0.82;0.52;;;28.20;70.90;;;;;;6276885;22;20452;-77
2022/08/02 09:55:29;;;;;;;1.75;0.75;;;28.40;65.60;;;;;;6278562;22;19996;-80
2022/08/02 09:57:55;;;;;;;0.60;0.45;;;28.40;63.50;;;;;;6278082;22;20414;-80
2022/08/02 10:00:25;;;;;;;1.80;0.50;;;28.50;65.40;;;;;;6277503;22;20065;-84
2022/08/02 10:03:11;;;;;;;0.45;0.40;;;28.70;66.80;;;;;;6278385;22;20082;-83
2022/08/02 10:05:48;;;;;;;0.73;0.60;;;29.00;66.30;;;;;;6277466;22;20038;-84
2022/08/02 10:08:14;;;;;;;0.75;0.50;;;29.20;64.50;;;;;;6278596;22;20007;-86
2022/08/02 10:10:41;;;;;;;0.63;0.47;;;29.40;63.20;;;;;;6249839;22;20004;-84
2022/08/02 10:13:08;;;;;;;0.40;0.40;;;29.40;61.80;;;;;;6277859;22;20002;-83
2022/08/02 10:15:35;;;;;;;0.40;0.30;;;29.40;62.70;;;;;;6278467;22;20000;-83
2022/08/02 10:18:01;;;;;;;0.70;0.60;;;29.50;61.40;;;;;;6278195;22;20003;-83
2022/08/02 10:20:29;;;;;;;0.88;0.60;;;29.40;60.30;;;;;;6277388;22;20004;-84
2022/08/02 10:22:56;;;;;;;0.40;0.40;;;29.40;59.70;;;;;;6277570;22;20000;-83
2022/08/02 10:25:23;;;;;;;1.17;0.20;;;29.30;59.80;;;;;;6277860;22;20007;-83
2022/08/02 10:27:50;;;;;;;0.52;0.50;;;29.40;60.40;;;;;;6277994;22;20004;-84
2022/08/02 10:30:15;;;;;;;0.35;0.32;;;29.50;60.70;;;;;;6277006;22;20330;-83
2022/08/02 10:32:48;;;;;;;0.93;0.50;;;29.70;60.30;;;;;;6278017;22;19991;-84
2022/08/02 10:35:17;;;;;;;1.13;0.80;;;29.90;59.00;;;;;;6250585;22;20333;-83
2022/08/02 10:37:44;;;;;;;0.40;0.40;;;29.90;58.10;;;;;;6277874;22;20433;-82
2022/08/02 10:40:21;;;;;;;0.77;0.40;;;30.10;58.80;;;;;;6277234;22;20010;-83
2022/08/02 10:42:52;;;;;;;0.40;0.30;;;30.20;58.40;;;;;;6277855;22;20023;-84
2022/08/02 10:45:21;;;;;;;0.68;0.40;;;30.40;58.30;;;;;;6277860;22;20444;-86
2022/08/02 10:48:02;;;;;;;84.20;74.97;;;30.70;59.00;;;;;;6252026;22;20414;-86
2022/08/02 10:50:46;;;;;;;22.75;20.42;;;31.00;58.90;;;;;;6278026;22;20067;-86
2022/08/02 10:53:30;;;;;;;5.43;4.68;;;31.20;57.80;;;;;;6276632;22;20008;-83
2022/08/02 10:56:01;;;;;;;1.10;1.00;;;31.50;57.80;;;;;;6276187;22;20077;-84
2022/08/02 10:58:32;;;;;;;0.63;0.52;;;31.70;54.30;;;;;;6276215;22;20004;-84
2022/08/02 11:01:26;;;;;;;0.77;0.40;;;31.80;54.90;;;;;;6276592;22;20015;-83
2022/08/02 11:03:58;;;;;;;1.63;0.60;;;31.90;54.00;;;;;;6277341;22;20421;-85
2022/08/02 11:06:24;;;;;;;0.45;0.40;;;32.00;55.10;;;;;;6277631;22;20437;-85
2022/08/02 11:08:49;;;;;;;0.32;0.28;;;32.10;54.90;;;;;;6277110;22;20015;-85
2022/08/02 11:11:17;;;;;;;0.80;0.57;;;32.30;55.40;;;;;;6277466;22;20046;-87
2022/08/02 11:14:07;;;;;;;0.40;0.40;;;32.60;55.10;;;;;;6278337;22;20000;-86
2022/08/02 11:16:51;;;;;;;;;;;32.70;50.30;;;;;;6278910;22;20022;-86
2022/08/02 11:19:17;;;;;;;0.30;0.30;;;32.70;52.40;;;;;;6277617;22;19899;-87
2022/08/02 11:22:04;;;;;;;0.28;0.20;;;32.90;53.20;;;;;;6277671;22;20426;-86
2022/08/02 11:24:35;;;;;;;0.77;0.50;;;33.10;52.70;;;;;;6250714;22;20448;-86
2022/08/02 11:27:06;;;;;;;0.85;0.40;;;33.20;48.90;;;;;;6278297;22;20003;-86
2022/08/02 11:29:40;;;;;;;0.20;0.15;;;33.20;50.50;;;;;;6277330;22;20010;-87
2022/08/02 11:32:23;;;;;;;1.23;0.80;;;33.20;50.80;;;;;;6277114;22;19996;-86
2022/08/02 11:34:52;;;;;;;0.45;0.40;;;33.50;50.50;;;;;;6277307;22;19995;-87
2022/08/02 11:37:28;;;;;;;0.88;0.40;;;33.60;49.80;;;;;;6277593;22;20054;-85
2022/08/02 11:39:54;;;;;;;1.25;0.50;;;33.90;49.80;;;;;;6277568;22;19999;-86
2022/08/02 11:42:19;;;;;;;1.42;0.35;;;34.30;50.20;;;;;;6250162;22;20003;-86
2022/08/02 11:44:47;;;;;;;0.20;0.20;;;34.80;49.40;;;;;;6250657;22;20489;-86
2022/08/02 11:47:14;;;;;;;0.30;0.30;;;35.20;48.60;;;;;;6277842;22;19999;-85
2022/08/02 11:49:39;;;;;;;1.95;0.50;;;35.70;48.40;;;;;;6276411;22;20086;-86
2022/08/02 11:52:09;;;;;;;0.60;0.40;;;36.20;48.20;;;;;;6276962;22;20035;-86
2022/08/02 11:54:41;;;;;;;;;;;36.60;47.10;;;;;;6250067;22;20298;-86
2022/08/02 11:57:11;;;;;;;1.42;0.63;;;36.90;44.20;;;;;;6277077;22;19929;-86
2022/08/02 11:59:38;;;;;;;0.55;0.40;;;36.90;43.10;;;;;;6277732;22;20012;-86
2022/08/02 12:02:07;;;;;;;0.38;0.38;;;36.60;43.10;;;;;;6276927;22;20003;-86
2022/08/02 12:04:33;;;;;;;3.75;0.63;;;36.80;44.50;;;;;;6277279;22;20035;-86
2022/08/02 12:07:00;;;;;;;1.83;0.32;;;37.10;44.40;;;;;;6276912;22;20000;-86
2022/08/02 12:09:27;;;;;;;0.50;0.45;;;37.40;43.60;;;;;;6276692;22;20386;-87
2022/08/02 12:11:55;;;;;;;0.60;0.55;;;37.30;40.10;;;;;;6277146;22;19999;-86
2022/08/02 12:14:22;;;;;;;1.77;0.50;;;37.40;41.90;;;;;;6277867;22;20406;-85
2022/08/02 12:19:34;;;;;;;1.20;0.90;;;37.60;42.50;;;;;;6276855;22;20089;-86
2022/08/02 12:22:16;;;;;;;3.55;0.90;;;37.80;43.00;;;;;;6277285;22;20457;-87
2022/08/02 12:24:44;;;;;;;1.17;0.80;;;38.10;43.50;;;;;;6277025;22;20006;-85
2022/08/02 12:27:30;;;;;;;0.75;0.50;;;38.30;43.20;;;;;;6250024;22;20004;-86
2022/08/02 12:30:01;;;;;;;0.55;0.55;;;38.60;41.10;;;;;;6276014;22;20090;-84
2022/08/02 12:32:27;;;;;;;2.67;0.40;;;38.50;37.80;;;;;;6276321;22;20007;-85
2022/08/02 12:35:03;;;;;;;0.55;0.40;;;38.30;38.10;;;;;;6276560;22;20000;-86
2022/08/02 12:37:30;;;;;;;0.45;0.43;;;38.00;38.80;;;;;;6248581;22;20007;-85
2022/08/02 12:39:55;;;;;;;1.15;0.68;;;37.70;38.20;;;;;;6275877;22;20351;-85
2022/08/02 12:42:21;;;;;;;0.57;0.40;;;37.50;38.00;;;;;;6276702;22;20050;-86
2022/08/02 12:44:50;;;;;;;1.75;0.75;;;37.40;37.70;;;;;;6275096;22;20007;-85
2022/08/02 12:47:16;;;;;;;0.30;0.30;;;37.40;38.30;;;;;;6275143;22;20034;-85
2022/08/02 12:49:42;;;;;;;0.50;0.30;;;37.30;37.70;;;;;;6275031;22;20003;-83
2022/08/02 12:52:23;;;;;;;0.45;0.45;;;37.10;37.80;;;;;;6275173;22;20398;-84
2022/08/02 12:54:49;;;;;;;1.55;0.60;;;37.20;36.20;;;;;;6276111;22;20067;-86
2022/08/02 12:57:18;;;;;;;0.40;0.40;;;37.00;37.30;;;;;;6248996;22;20299;-84
2022/08/02 12:59:50;;;;;;;0.77;0.43;;;37.10;38.90;;;;;;6275384;22;20053;-84
2022/08/02 13:02:17;;;;;;;4.25;2.92;;;37.30;39.20;;;;;;6275247;22;20033;-86
2022/08/02 13:04:43;;;;;;;71.65;64.95;;;37.60;39.80;;;;;;6248356;22;20008;-86